CheckWX is a tool to help pilots better visualize weather data.  It is not intended as a substitute for an official pre-flight weather briefing.

22:04:50 UTC

PAUN METAR
Unalakleet Airport
Unalakleet, Alaska, USA
Current

42 mins ago

PAUN 082123Z AUTO 23009KT 4SM -SN FEW009 BKN019 M11/M15 A3008 RMK AO2 P0000 FZRANO
Observed
Apr-8 @ 21:23 UTC
Wind
  • 230° at 9 KTS
Visibility
Flight Rules
MVFR
Conditions
Light Snow
Cloud Levels
  • Few at 900' AGL
  • Broken at 1,900' AGL
Temperature
-11°C / 12°F
Dewpoint
-15°C / 5°F
Humidity
73%
Altimeter
30.08" Hg
Pressure
1018.62 hPa
Current Rain
0.01"
Previous

49 mins ago

PAUN 082116Z AUTO 21008KT 2 1/2SM -SN FEW009 BKN019 M11/M15 A3008 RMK AO2 VIS 1 3/4V4 P0000 FZRANO
Observed
Apr-8 @ 21:16 UTC
Wind
  • 210° at 8 KTS
Visibility
Flight Rules
IFR
Conditions
Light Snow
Cloud Levels
  • Few at 900' AGL
  • Broken at 1,900' AGL
Temperature
-11°C / 12°F
Dewpoint
-15°C / 5°F
Humidity
73%
Altimeter
30.08" Hg
Pressure
1018.62 hPa
Current Rain
0.01"
Previous

57 mins ago

PAUN 082108Z AUTO 21008KT 2 1/2SM -SN FEW009 SCT016 M12/M15 A3008 RMK AO2 VIS 1 1/4V5 P0000 FZRANO
Observed
Apr-8 @ 21:08 UTC
Wind
  • 210° at 8 KTS
Visibility
Flight Rules
IFR
Conditions
Light Snow
Cloud Levels
  • Few at 900' AGL
  • Scattered at 1,600' AGL
Temperature
-12°C / 10°F
Dewpoint
-15°C / 5°F
Humidity
79%
Altimeter
30.08" Hg
Pressure
1018.62 hPa
Current Rain
0.01"